Arock, Oregon
Current Conditions -  °F | °C
As of 6:55 AM on Saturday 22 Nov 2014 (Local Time) from KMAN Reporting Station
Overcast Overcast  
Wind Chill: 39°   Ceiling: 3900
Heat Index: 39°   Visibility: 10mi
Dew Point: 39°   Wind: 3mph
Humidity: 100%   Direction: 150°SSE
Pressure: 29.71"   Gusts: NA
Location:  42.91°N, 117.53°W
Report Text: KMAN 221355Z AUTO 15003KT 10SM OVC039 04/04 A2971 RMK AO1
Loading
Personal Weather Stations






























Interactive Weather Map New forecast layout! Learn more

10-Day Weather Forecast

Advertisements
Track Severe Weather on mobile